LGPZ/PVK METAR and TAF weather

Enter ICAO airport designator
Station Type Date Time Source
LGPZ METAR 2022/01/29 09:20 UTC NOAA

LGPZ 290920Z 09019KT 9000 -RA FEW014 FEW018TCU BKN020 OVC080 05/04 Q1018


Station Type Date Time Source
LGPZ Decoded METAR 2022/01/29 09:20 UTC NOAA

Aktion Airport , Greece (LGPZ) 38-37N 020-46E 4M
Jan 29, 2022 - 04:20 AM EST / 2022.01.29 0920 UTC
Wind: from the E (090 degrees) at 22 MPH (19 KT):0
Visibility: 5 mile(s):0
Sky conditions: overcast
Weather: light rain; Towering cumulus clouds observed
Temperature: 41 F (5 C)
Dew Point: 39 F (4 C)
Relative Humidity: 93%
Pressure (altimeter): 30.06 in. Hg (1018 hPa)
ob: LGPZ 290920Z 09019KT 9000 -RA FEW014 FEW018TCU BKN020 OVC080 05/04 Q1018
cycle: 9

Station Type Date Time Source
LGPZ TAF 2022/01/29 06:12 UTC NOAA

TAF TAF LGPZ 290500Z 2906/3006 06013KT 9999 SCT020 BKN080
TEMPO 2906/2912 5000 RA FEW012 FEW018TCU BKN020 PROB30
TEMPO 2906/2912 4000 TSRA SCT010 FEW018CB BKN020 BKN070
BECMG 2918/2920 FEW025
TEMPO 2908/2921 05013G23KT

Example: see airport list